createdAt,value
2022-11-28T00:03:17.971Z,101894.25
2022-11-28T00:08:47.567Z,101890.72
2022-11-28T00:14:19.948Z,101900.09
2022-11-28T00:19:48.749Z,101902.78
2022-11-28T00:25:18.560Z,101905.16
2022-11-28T00:30:49.433Z,101911.22
2022-11-28T00:36:18.378Z,101904.03
2022-11-28T00:41:47.353Z,101907.41
2022-11-28T00:47:17.853Z,101904.47
2022-11-28T00:52:47.307Z,101910.97
2022-11-28T00:58:16.020Z,101908.28
2022-11-28T01:03:47.535Z,101909.25
2022-11-28T01:09:20.716Z,101902.19
2022-11-28T01:14:50.171Z,101905.72
2022-11-28T01:20:20.665Z,101911.66
2022-11-28T01:25:49.802Z,101911.50
2022-11-28T01:31:22.187Z,101913.34
2022-11-28T01:36:52.170Z,101906.00
2022-11-28T01:42:21.544Z,101908.38
2022-11-28T01:47:53.006Z,101919.00
2022-11-28T01:53:24.001Z,101915.47
2022-11-28T01:58:59.271Z,101913.75
2022-11-28T02:04:29.631Z,101919.00
2022-11-28T02:10:01.849Z,101918.16
2022-11-28T02:15:52.548Z,101920.13
2022-11-28T02:21:39.761Z,101918.44
2022-11-28T02:27:38.371Z,101913.06
2022-11-28T02:33:15.712Z,101916.75
2022-11-28T02:38:55.953Z,101921.41
2022-11-28T02:44:33.270Z,101917.44
2022-11-28T02:50:08.710Z,101914.50
2022-11-28T02:55:41.167Z,101914.63
2022-11-28T03:01:18.482Z,101917.19
2022-11-28T03:07:00.137Z,101916.44
2022-11-28T03:12:39.066Z,101923.53
2022-11-28T03:18:13.446Z,101918.16
2022-11-28T03:23:49.615Z,101922.97
2022-11-28T03:29:24.582Z,101928.34
2022-11-28T03:34:59.299Z,101931.72
2022-11-28T03:40:37.718Z,101937.97
2022-11-28T03:46:12.697Z,101947.88
2022-11-28T03:51:47.953Z,101943.91
2022-11-28T03:57:25.791Z,101947.31
2022-11-28T04:03:03.859Z,101942.78
2022-11-28T04:08:36.703Z,101949.69
2022-11-28T04:14:13.407Z,101944.47
2022-11-28T04:19:48.553Z,101952.41
2022-11-28T04:25:21.256Z,101950.41
2022-11-28T04:30:58.890Z,101952.00
2022-11-28T04:36:30.158Z,101951.84
2022-11-28T04:42:03.785Z,101960.88
2022-11-28T04:47:34.574Z,101964.59
2022-11-28T04:53:11.316Z,101953.09
2022-11-28T04:58:43.062Z,101967.38
2022-11-28T05:04:14.768Z,101965.00
2022-11-28T05:09:43.809Z,101960.59
2022-11-28T05:15:13.433Z,101967.22
2022-11-28T05:20:43.311Z,101972.69
2022-11-28T05:26:13.825Z,101983.16
2022-11-28T05:31:42.807Z,101999.81
2022-11-28T05:37:13.620Z,102004.88
2022-11-28T05:42:43.039Z,102015.38
2022-11-28T05:48:12.496Z,102012.97
2022-11-28T05:53:42.561Z,102024.41
2022-11-28T05:59:13.741Z,102027.19
2022-11-28T06:04:42.965Z,102018.72
2022-11-28T06:10:13.443Z,102019.34
2022-11-28T06:15:45.513Z,102030.44
2022-11-28T06:21:15.645Z,102039.47
2022-11-28T06:26:46.627Z,102037.06
2022-11-28T06:32:20.556Z,102041.09
2022-11-28T06:37:50.814Z,102044.16
2022-11-28T06:43:21.573Z,102052.19
2022-11-28T06:48:51.990Z,102052.03
2022-11-28T06:54:21.266Z,102044.13
2022-11-28T06:59:51.600Z,102050.47
2022-11-28T07:05:22.887Z,102059.47
2022-11-28T07:10:52.096Z,102065.50
2022-11-28T07:16:24.391Z,102061.56
2022-11-28T07:21:53.148Z,102070.22
2022-11-28T07:27:22.435Z,102065.44
2022-11-28T07:32:55.357Z,102069.94
2022-11-28T07:38:24.271Z,102082.16
2022-11-28T07:43:57.459Z,102080.75
2022-11-28T07:49:27.251Z,102078.22
2022-11-28T07:54:56.213Z,102086.44
2022-11-28T08:00:25.400Z,102081.34
2022-11-28T08:06:02.971Z,102091.81
2022-11-28T08:11:32.783Z,102079.91
2022-11-28T08:17:02.301Z,102077.81
2022-11-28T08:22:32.436Z,102079.56
2022-11-28T08:27:58.269Z,102083.69
2022-11-28T08:33:26.886Z,102076.16
2022-11-28T08:39:16.738Z,102064.22
2022-11-28T08:44:46.161Z,102069.16
2022-11-28T08:50:10.177Z,102066.97
2022-11-28T08:55:39.156Z,102065.91
2022-11-28T09:01:17.022Z,102061.84
2022-11-28T09:06:41.441Z,102060.69
2022-11-28T09:12:09.149Z,102074.66
2022-11-28T09:17:34.664Z,102067.09
2022-11-28T09:22:58.297Z,102066.94
2022-11-28T09:28:23.988Z,102061.94
2022-11-28T09:33:53.442Z,102057.00
2022-11-28T09:39:22.145Z,102065.41
2022-11-28T09:44:52.771Z,102056.91
2022-11-28T09:50:22.610Z,102054.88
2022-11-28T09:55:53.709Z,102046.38
2022-11-28T10:01:33.156Z,102048.31
2022-11-28T10:07:07.941Z,102053.50
2022-11-28T10:12:49.029Z,102053.06
2022-11-28T10:18:31.024Z,102066.81
2022-11-28T10:24:04.768Z,102055.09
2022-11-28T10:29:34.871Z,102055.09
2022-11-28T10:35:05.488Z,102051.69
2022-11-28T10:40:40.378Z,102051.47
2022-11-28T10:46:20.409Z,102047.25
2022-11-28T10:51:55.132Z,102042.94
2022-11-28T10:57:28.195Z,102029.72
2022-11-28T11:03:02.426Z,102043.50
2022-11-28T11:08:36.544Z,102042.53
2022-11-28T11:14:03.483Z,102048.56
2022-11-28T11:19:30.967Z,102044.63
2022-11-28T11:25:16.302Z,102055.81
2022-11-28T11:30:45.155Z,102053.72
2022-11-28T11:36:25.738Z,102065.38
2022-11-28T11:41:53.721Z,102063.88
2022-11-28T11:47:18.106Z,102061.63
2022-11-28T11:52:42.104Z,102056.41
2022-11-28T11:58:12.600Z,102061.19
2022-11-28T12:03:42.477Z,102052.63
2022-11-28T12:16:05.933Z,102052.16
2022-11-28T12:21:39.658Z,102058.72
2022-11-28T12:27:14.211Z,102062.38
2022-11-28T12:32:58.242Z,102061.44
2022-11-28T12:38:36.493Z,102062.00
2022-11-28T12:44:08.858Z,102065.13
2022-11-28T12:49:42.601Z,102074.41
2022-11-28T12:55:21.770Z,102071.78
2022-11-28T13:01:00.568Z,102071.53
2022-11-28T13:06:42.458Z,102081.09
2022-11-28T13:12:24.229Z,102073.63
2022-11-28T13:17:59.056Z,102079.22
2022-11-28T13:23:37.131Z,102082.09
2022-11-28T13:29:07.393Z,102087.47
2022-11-28T13:34:37.927Z,102090.72
2022-11-28T13:40:18.085Z,102090.38
2022-11-28T13:45:44.502Z,102098.09
2022-11-28T13:51:20.909Z,102096.53
2022-11-28T13:57:13.988Z,102100.78
2022-11-28T14:02:45.975Z,102114.44
2022-11-28T14:08:30.561Z,102109.09
2022-11-28T14:14:30.502Z,102111.72
2022-11-28T14:20:14.093Z,102101.00
2022-11-28T14:25:46.125Z,102107.34
2022-11-28T14:31:33.209Z,102102.47
2022-11-28T14:37:56.144Z,102101.63
2022-11-28T14:43:27.494Z,102100.34
2022-11-28T14:49:20.365Z,102100.06
2022-11-28T14:54:53.250Z,102101.78
2022-11-28T15:00:26.188Z,102097.84
2022-11-28T15:06:00.507Z,102100.34
2022-11-28T15:12:00.509Z,102090.47
2022-11-28T15:17:33.516Z,102111.53
2022-11-28T15:23:02.376Z,102098.91
2022-11-28T15:28:34.078Z,102119.34
2022-11-28T15:34:10.093Z,102129.81
2022-11-28T15:39:42.011Z,102130.06
2022-11-28T15:45:19.754Z,102129.72
2022-11-28T15:50:52.333Z,102132.28
2022-11-28T15:56:20.285Z,102144.22
2022-11-28T16:01:50.304Z,102142.03
2022-11-28T16:07:17.611Z,102145.91
2022-11-28T16:12:46.625Z,102145.66
2022-11-28T16:18:15.322Z,102151.53
2022-11-28T16:23:40.315Z,102166.63
2022-11-28T16:29:14.701Z,102172.69
2022-11-28T16:34:48.008Z,102161.97
2022-11-28T16:40:22.930Z,102157.13
2022-11-28T16:46:00.346Z,102163.94
2022-11-28T16:51:32.734Z,102170.50
2022-11-28T16:57:14.739Z,102177.69
2022-11-28T17:02:43.972Z,102172.69
2022-11-28T17:08:13.328Z,102165.88
2022-11-28T17:13:38.109Z,102158.31
2022-11-28T17:19:04.221Z,102178.22
2022-11-28T17:24:35.752Z,102169.09
2022-11-28T17:30:08.381Z,102184.78
2022-11-28T17:35:37.225Z,102194.00
2022-11-28T17:41:01.779Z,102193.91
2022-11-28T17:46:26.290Z,102188.81
2022-11-28T17:51:57.763Z,102179.50
2022-11-28T17:57:22.413Z,102194.72
2022-11-28T18:02:52.358Z,102189.13
2022-11-28T18:08:22.546Z,102187.41
2022-11-28T18:13:50.755Z,102195.81
2022-11-28T18:19:21.377Z,102194.09
2022-11-28T18:24:49.462Z,102191.97
2022-11-28T18:30:19.374Z,102184.50
2022-11-28T18:35:47.164Z,102193.44
2022-11-28T18:41:18.484Z,102192.41
2022-11-28T18:46:48.351Z,102195.41
2022-11-28T18:52:18.415Z,102190.28
2022-11-28T18:57:43.118Z,102193.94
2022-11-28T19:03:12.231Z,102179.81
2022-11-28T19:08:44.146Z,102190.50
2022-11-28T19:14:16.720Z,102180.06
2022-11-28T19:19:46.551Z,102170.88
2022-11-28T19:25:16.883Z,102177.56
2022-11-28T19:30:46.400Z,102179.97
2022-11-28T19:36:16.368Z,102174.16
2022-11-28T19:41:47.458Z,102175.84
2022-11-28T19:47:11.328Z,102186.31
2022-11-28T19:52:40.658Z,102183.28
2022-11-28T19:58:11.633Z,102177.09
2022-11-28T20:03:35.991Z,102180.72
2022-11-28T20:09:07.760Z,102177.31
2022-11-28T20:14:40.569Z,102168.56
2022-11-28T20:20:10.606Z,102165.16
2022-11-28T20:25:36.329Z,102161.41
2022-11-28T20:31:07.678Z,102172.59
2022-11-28T20:36:36.478Z,102177.44
2022-11-28T20:42:02.621Z,102180.28
2022-11-28T20:47:35.038Z,102186.94
2022-11-28T20:53:04.262Z,102179.16
2022-11-28T20:58:28.653Z,102171.41
2022-11-28T21:03:58.975Z,102189.13
2022-11-28T21:09:22.217Z,102160.34
2022-11-28T21:14:46.060Z,102177.06
2022-11-28T21:20:16.706Z,102174.47
2022-11-28T21:25:45.425Z,102173.31
2022-11-28T21:31:16.913Z,102184.72
2022-11-28T21:36:45.499Z,102151.34
2022-11-28T21:42:08.702Z,102169.91
2022-11-28T21:47:34.098Z,102165.28
2022-11-28T21:52:57.616Z,102156.63
2022-11-28T21:58:27.566Z,102180.25
2022-11-28T22:03:50.556Z,102170.41
2022-11-28T22:09:20.624Z,102171.88
2022-11-28T22:14:49.701Z,102173.34
2022-11-28T22:20:19.671Z,102171.41
2022-11-28T22:25:54.164Z,102167.16
2022-11-28T22:31:23.627Z,102153.66
2022-11-28T22:36:52.966Z,102147.03
2022-11-28T22:42:23.623Z,102143.50
2022-11-28T22:47:55.002Z,102155.16
2022-11-28T22:53:22.834Z,102157.53
2022-11-28T22:58:53.582Z,102159.00
2022-11-28T23:04:22.451Z,102169.72
2022-11-28T23:09:45.953Z,102152.44
2022-11-28T23:15:16.909Z,102158.91
2022-11-28T23:20:46.409Z,102153.50
2022-11-28T23:26:17.786Z,102159.47
2022-11-28T23:31:43.016Z,102163.25
2022-11-28T23:37:13.356Z,102164.03
2022-11-28T23:42:43.021Z,102153.09
2022-11-28T23:48:08.239Z,102141.25
2022-11-28T23:53:37.807Z,102147.13
2022-11-28T23:59:03.737Z,102134.13
